METAR Data
IDs: Format: Raw Decoded Include TAF

Data at: 2358 UTC 24 Apr 2019

METAR for:KEOK (Keokuk Muni, IA, US)
Text:KEOK 242355Z AUTO 14006KT 10SM OVC018 14/11 A2984 RMK AO2
Temperature: 14.0°C ( 57°F)
Dewpoint: 11.0°C ( 52°F) [RH = 82%]
Pressure (altimeter):29.84 inches Hg (1010.6 mb)
Winds:from the SE (140 degrees) at 7 MPH (6 knots; 3.1 m/s)
Visibility:10 or more sm (16+ km)
Ceiling:1800 feet AGL
Clouds: overcast cloud deck at 1800 feet AGL
QC Flag:automated observation with no human augmentation